createdAt,value
2016-08-07T00:00:00.330Z,64.4
2016-08-07T00:00:03.307Z,64.4
2016-08-07T00:00:06.292Z,64.4
2016-08-07T00:00:10.001Z,64.4
2016-08-07T00:00:12.978Z,64.4
2016-08-07T00:00:16.682Z,64.4
2016-08-07T00:00:19.657Z,64.4
2016-08-07T00:00:23.361Z,64.3
2016-08-07T00:00:24.879Z,64.4
2016-08-07T00:00:28.583Z,64.3
2016-08-07T00:00:31.558Z,64.3
2016-08-07T00:00:33.804Z,64.4
2016-08-07T00:00:36.782Z,64.2
2016-08-07T00:00:39.778Z,64.4
2016-08-07T00:00:42.756Z,64.3
2016-08-07T00:00:45.734Z,64.3
2016-08-07T00:00:48.710Z,64.4
2016-08-07T00:00:50.238Z,64.4
2016-08-07T00:00:53.935Z,64.3
2016-08-07T00:00:55.450Z,64.3
2016-08-07T00:00:59.156Z,64.3
2016-08-07T00:01:02.134Z,64.5
2016-08-07T00:01:05.836Z,64.2
2016-08-07T00:01:08.087Z,64.5
2016-08-07T00:01:09.609Z,64.5
2016-08-07T00:01:12.583Z,64.4
2016-08-07T00:01:15.557Z,64.2
2016-08-07T00:01:19.264Z,64.5
2016-08-07T00:01:21.513Z,64.4
2016-08-07T00:01:25.217Z,64.5
2016-08-07T00:01:28.923Z,64.5
2016-08-07T00:01:31.899Z,64.3
2016-08-07T00:01:34.878Z,64.5
2016-08-07T00:01:38.582Z,64.3
2016-08-07T00:01:41.559Z,64.2
2016-08-07T00:01:45.263Z,64.5
2016-08-07T00:01:48.238Z,64.4
2016-08-07T00:01:50.486Z,64.4
2016-08-07T00:01:54.189Z,64.5
2016-08-07T00:01:56.438Z,64.3
2016-08-07T00:01:59.414Z,64.4
2016-08-07T00:02:03.116Z,64.3
2016-08-07T00:02:06.094Z,64.5
2016-08-07T00:02:09.079Z,64.2
2016-08-07T00:02:12.786Z,64.4
2016-08-07T00:02:16.495Z,64.4
2016-08-07T00:02:19.479Z,64.3
2016-08-07T00:02:23.194Z,64.2
2016-08-07T00:02:26.178Z,64.4
2016-08-07T00:02:29.878Z,64.4
2016-08-07T00:02:32.127Z,64.7
2016-08-07T00:02:35.101Z,64.4
2016-08-07T00:02:37.345Z,64.4
2016-08-07T00:02:41.053Z,64.4
2016-08-07T00:02:43.300Z,64.5
2016-08-07T00:02:46.277Z,64.4
2016-08-07T00:02:49.252Z,64.4
2016-08-07T00:02:52.958Z,64.2
2016-08-07T00:02:55.934Z,64.3
2016-08-07T00:02:58.183Z,64.2
2016-08-07T00:03:01.897Z,64.4
2016-08-07T00:03:04.868Z,64.2
2016-08-07T00:03:07.844Z,64.4
2016-08-07T00:03:10.091Z,64.4
2016-08-07T00:03:13.066Z,64.3
2016-08-07T00:03:16.778Z,64.5
2016-08-07T00:03:19.755Z,64.4
2016-08-07T00:03:23.460Z,64.5
2016-08-07T00:03:26.438Z,64.4
2016-08-07T00:03:29.413Z,64.4
2016-08-07T00:03:32.387Z,64.4
2016-08-07T00:03:36.095Z,64.4
2016-08-07T00:03:39.798Z,64.3
2016-08-07T00:03:42.782Z,64.4
2016-08-07T00:03:44.308Z,64.5
2016-08-07T00:03:48.069Z,64.4
2016-08-07T00:03:50.313Z,64.4
2016-08-07T00:03:53.290Z,64.3
2016-08-07T00:03:56.266Z,64.4
2016-08-07T00:03:59.246Z,64.3
2016-08-07T00:04:02.218Z,64.4
2016-08-07T00:04:05.195Z,64.4
2016-08-07T00:04:08.901Z,64.4
2016-08-07T00:04:11.873Z,64.2
2016-08-07T00:04:14.856Z,64.4
2016-08-07T00:04:18.555Z,64.3
2016-08-07T00:04:20.801Z,64.4
2016-08-07T00:04:23.777Z,64.4
2016-08-07T00:04:25.299Z,64.2
2016-08-07T00:04:28.274Z,64.3
2016-08-07T00:04:30.522Z,64.3
2016-08-07T00:04:32.770Z,64.3
2016-08-07T00:04:36.475Z,64.3
2016-08-07T00:04:39.459Z,64.2
2016-08-07T00:04:43.169Z,64.4
2016-08-07T00:04:46.875Z,64.3
2016-08-07T00:04:49.853Z,64.4
2016-08-07T00:04:53.560Z,64.3
2016-08-07T00:04:57.265Z,64.5
2016-08-07T00:05:00.244Z,64.4
2016-08-07T00:05:03.219Z,64.3
2016-08-07T00:05:06.197Z,64.3
2016-08-07T00:05:09.172Z,64.3
2016-08-07T00:05:12.159Z,64.3
2016-08-07T00:05:15.132Z,64.5
2016-08-07T00:05:17.383Z,64.3
2016-08-07T00:05:21.086Z,64.5
2016-08-07T00:05:23.333Z,64.3
2016-08-07T00:05:27.037Z,64.3
2016-08-07T00:05:29.288Z,64.3
2016-08-07T00:05:32.995Z,64.3
2016-08-07T00:05:35.967Z,64.3
2016-08-07T00:05:39.674Z,64.5
2016-08-07T00:05:43.385Z,64.3
2016-08-07T00:05:46.360Z,64.4
2016-08-07T00:05:49.336Z,64.3
2016-08-07T00:05:53.044Z,64.3
2016-08-07T00:05:56.748Z,64.5
2016-08-07T00:05:59.723Z,64.3
2016-08-07T00:06:02.704Z,64.4
2016-08-07T00:06:04.223Z,64.4
2016-08-07T00:06:07.929Z,64.4
2016-08-07T00:06:10.176Z,64.3
2016-08-07T00:06:13.882Z,64.4
2016-08-07T00:06:16.133Z,64.3
2016-08-07T00:06:19.108Z,64.3
2016-08-07T00:06:22.814Z,64.4
2016-08-07T00:06:26.520Z,64.4
2016-08-07T00:06:29.496Z,64.3
2016-08-07T00:06:32.470Z,64.2
2016-08-07T00:06:34.717Z,64.3
2016-08-07T00:06:36.964Z,64.5
2016-08-07T00:06:39.211Z,64.4
2016-08-07T00:06:42.191Z,64.3
2016-08-07T00:06:45.897Z,64.5
2016-08-07T00:06:48.875Z,64.4
2016-08-07T00:06:51.852Z,64.4
2016-08-07T00:06:54.101Z,64.4
2016-08-07T00:06:57.078Z,64.5
2016-08-07T00:06:59.325Z,64.3
2016-08-07T00:07:01.570Z,64.3
2016-08-07T00:07:05.273Z,64.3
2016-08-07T00:07:08.981Z,64.3
2016-08-07T00:07:12.689Z,64.5
2016-08-07T00:07:15.670Z,64.4
2016-08-07T00:07:18.655Z,64.4
2016-08-07T00:07:20.910Z,64.4
2016-08-07T00:07:23.886Z,64.3
2016-08-07T00:07:26.132Z,64.3
2016-08-07T00:07:28.379Z,64.4
2016-08-07T00:07:30.627Z,64.3
2016-08-07T00:07:32.875Z,64.3
2016-08-07T00:07:33.665Z,64.3
2016-08-07T00:07:37.372Z,64.4
2016-08-07T00:07:39.624Z,64.3
2016-08-07T00:07:50.904Z,64.4
2016-08-07T00:07:53.879Z,64.5
2016-08-07T00:07:57.586Z,64.4
2016-08-07T00:08:01.297Z,64.3
2016-08-07T00:08:04.270Z,64.4
2016-08-07T00:08:07.974Z,64.3
2016-08-07T00:08:10.219Z,64.3
2016-08-07T00:08:13.927Z,64.5
2016-08-07T00:08:16.900Z,64.4
2016-08-07T00:08:20.606Z,64.3
2016-08-07T00:08:22.848Z,64.4
2016-08-07T00:08:25.823Z,64.3
2016-08-07T00:08:29.525Z,64.5
2016-08-07T00:08:32.515Z,64.4
2016-08-07T00:08:36.210Z,64.4
2016-08-07T00:08:39.188Z,64.3
2016-08-07T00:08:41.432Z,64.3
2016-08-07T00:08:45.136Z,64.3
2016-08-07T00:08:48.843Z,64.3
2016-08-07T00:08:51.838Z,64.5
2016-08-07T00:08:54.811Z,64.3
2016-08-07T00:08:57.065Z,64.5
2016-08-07T00:08:58.586Z,64.3
2016-08-07T00:09:02.291Z,64.4
2016-08-07T00:09:06.003Z,64.3
2016-08-07T00:09:08.979Z,64.4
2016-08-07T00:09:11.962Z,64.4
2016-08-07T00:09:15.664Z,64.4
2016-08-07T00:09:17.914Z,64.5
2016-08-07T00:09:19.439Z,64.4
2016-08-07T00:09:23.145Z,64.4
2016-08-07T00:09:25.394Z,64.3
2016-08-07T00:09:28.374Z,64.3
2016-08-07T00:09:31.355Z,64.4
2016-08-07T00:09:33.600Z,64.4
2016-08-07T00:09:37.303Z,64.3
2016-08-07T00:09:39.554Z,64.3
2016-08-07T00:09:42.534Z,64.4
2016-08-07T00:09:45.507Z,64.3
2016-08-07T00:09:49.215Z,64.3
2016-08-07T00:09:52.926Z,64.4
2016-08-07T00:09:55.902Z,64.4
2016-08-07T00:09:58.889Z,64.3
2016-08-07T00:10:00.404Z,64.3
2016-08-07T00:10:03.387Z,64.3
2016-08-07T00:10:05.634Z,64.3
2016-08-07T00:10:08.608Z,64.3
2016-08-07T00:10:12.313Z,64.4
2016-08-07T00:10:15.291Z,64.3
2016-08-07T00:10:18.268Z,64.3
2016-08-07T00:10:19.786Z,64.3
2016-08-07T00:10:23.492Z,64.3
2016-08-07T00:10:26.466Z,64.4
2016-08-07T00:10:29.444Z,64.4
2016-08-07T00:10:33.153Z,64.4
2016-08-07T00:10:36.128Z,64.4
2016-08-07T00:10:38.380Z,64.3
2016-08-07T00:10:41.353Z,64.4
2016-08-07T00:10:45.057Z,64.4
2016-08-07T00:10:48.761Z,64.3
2016-08-07T00:10:51.739Z,64.3
2016-08-07T00:10:53.988Z,64.4
2016-08-07T00:10:57.692Z,64.4
2016-08-07T00:11:00.666Z,64.3
2016-08-07T00:11:03.643Z,64.3
2016-08-07T00:11:06.620Z,64.4
2016-08-07T00:11:10.323Z,64.3
2016-08-07T00:11:12.570Z,64.5
2016-08-07T00:11:14.823Z,64.5
2016-08-07T00:11:18.523Z,64.5
2016-08-07T00:11:20.780Z,64.5
2016-08-07T00:11:24.484Z,64.4
2016-08-07T00:11:27.460Z,64.4
2016-08-07T00:11:29.706Z,64.4
2016-08-07T00:11:31.950Z,64.4
2016-08-07T00:11:34.201Z,64.4
2016-08-07T00:11:37.905Z,64.3
2016-08-07T00:11:40.153Z,64.4
2016-08-07T00:11:43.129Z,64.4
2016-08-07T00:11:46.103Z,64.3
2016-08-07T00:11:47.628Z,64.4
2016-08-07T00:11:50.611Z,64.3
2016-08-07T00:11:53.585Z,64.3
2016-08-07T00:11:55.831Z,64.3
2016-08-07T00:11:58.811Z,64.4
2016-08-07T00:12:02.522Z,64.3
2016-08-07T00:12:05.490Z,64.4
2016-08-07T00:12:09.194Z,64.3
2016-08-07T00:12:11.441Z,64.5
2016-08-07T00:12:14.413Z,64.3
2016-08-07T00:12:18.119Z,64.3
2016-08-07T00:12:21.092Z,64.4
2016-08-07T00:12:24.065Z,64.3
2016-08-07T00:12:27.043Z,64.4
2016-08-07T00:12:29.289Z,64.4
2016-08-07T00:12:31.536Z,64.4
2016-08-07T00:12:34.513Z,64.5
2016-08-07T00:12:36.761Z,64.6
2016-08-07T00:12:39.004Z,64.4
2016-08-07T00:12:41.983Z,64.4
2016-08-07T00:12:45.687Z,64.3
2016-08-07T00:12:48.660Z,64.3
2016-08-07T00:12:52.366Z,64.4
2016-08-07T00:12:55.341Z,64.4
2016-08-07T00:12:59.044Z,64.6
2016-08-07T00:13:02.025Z,64.5
2016-08-07T00:13:05.005Z,64.5
2016-08-07T00:13:07.977Z,64.5
2016-08-07T00:13:11.679Z,64.4
2016-08-07T00:13:15.385Z,64.5
2016-08-07T00:13:18.362Z,64.6
2016-08-07T00:13:20.608Z,64.5
2016-08-07T00:13:24.314Z,64.4
2016-08-07T00:13:28.020Z,64.6
2016-08-07T00:13:31.722Z,64.6
2016-08-07T00:13:33.320Z,64.6
2016-08-07T00:13:36.298Z,64.6
2016-08-07T00:13:40.009Z,64.6
2016-08-07T00:13:43.710Z,64.4
2016-08-07T00:13:46.688Z,64.6
2016-08-07T00:13:50.392Z,64.5
2016-08-07T00:13:53.368Z,64.7
2016-08-07T00:13:57.076Z,64.6
2016-08-07T00:14:00.779Z,64.6
2016-08-07T00:14:03.759Z,64.5
2016-08-07T00:14:07.463Z,64.6
2016-08-07T00:14:10.443Z,64.6
2016-08-07T00:14:12.689Z,64.6
2016-08-07T00:14:16.394Z,65.1
2016-08-07T00:14:18.642Z,64.6
2016-08-07T00:14:21.619Z,64.6
2016-08-07T00:14:25.324Z,64.6
2016-08-07T00:14:28.300Z,64.6
2016-08-07T00:14:30.546Z,64.7
2016-08-07T00:14:34.251Z,64.8
2016-08-07T00:14:36.504Z,64.8
2016-08-07T00:14:38.922Z,64.6
2016-08-07T00:14:41.173Z,64.5
2016-08-07T00:14:43.423Z,64.6
2016-08-07T00:14:44.938Z,64.7
2016-08-07T00:14:47.189Z,64.6
2016-08-07T00:14:50.162Z,64.6
2016-08-07T00:14:53.141Z,64.6
2016-08-07T00:14:56.851Z,64.6
2016-08-07T00:14:59.828Z,64.6
2016-08-07T00:15:02.805Z,64.6
2016-08-07T00:15:06.509Z,64.6
2016-08-07T00:15:10.213Z,64.6
2016-08-07T00:15:13.925Z,64.9
2016-08-07T00:15:17.634Z,64.8
2016-08-07T00:15:19.882Z,64.6
2016-08-07T00:15:22.857Z,64.6
2016-08-07T00:15:25.832Z,64.8
2016-08-07T00:15:28.808Z,64.8
2016-08-07T00:15:32.513Z,64.9
2016-08-07T00:15:35.494Z,64.9
2016-08-07T00:15:39.200Z,64.8
2016-08-07T00:15:42.183Z,64.6
2016-08-07T00:15:44.423Z,64.9
2016-08-07T00:15:46.669Z,64.8
2016-08-07T00:15:48.916Z,64.9
2016-08-07T00:15:52.624Z,64.8
2016-08-07T00:15:54.875Z,64.8
2016-08-07T00:15:57.851Z,64.8
2016-08-07T00:16:01.559Z,64.8
2016-08-07T00:16:04.542Z,64.9
2016-08-07T00:16:07.516Z,64.9
2016-08-07T00:16:09.761Z,64.5
2016-08-07T00:16:12.740Z,64.9
2016-08-07T00:16:15.716Z,64.9
2016-08-07T00:16:18.690Z,64.6
2016-08-07T00:16:21.668Z,64.8
2016-08-07T00:16:23.926Z,64.6
2016-08-07T00:16:26.903Z,64.9
2016-08-07T00:16:29.146Z,64.9
2016-08-07T00:16:32.124Z,64.8
2016-08-07T00:16:35.828Z,64.9
2016-08-07T00:16:38.806Z,64.6
2016-08-07T00:16:42.513Z,64.9
2016-08-07T00:16:46.214Z,64.6
2016-08-07T00:16:48.463Z,64.9
2016-08-07T00:16:51.439Z,64.9
2016-08-07T00:16:53.687Z,64.8
2016-08-07T00:16:55.933Z,64.8
2016-08-07T00:16:58.909Z,64.6
2016-08-07T00:17:02.611Z,64.9
2016-08-07T00:17:04.134Z,65
2016-08-07T00:17:07.107Z,64.9
2016-08-07T00:17:10.084Z,64.8
2016-08-07T00:17:13.790Z,64.9
2016-08-07T00:17:16.765Z,64.9
2016-08-07T00:17:19.742Z,64.8
2016-08-07T00:17:23.444Z,64.9
2016-08-07T00:17:26.425Z,64.8
2016-08-07T00:17:29.399Z,64.9
2016-08-07T00:17:32.377Z,64.9
2016-08-07T00:17:36.079Z,65
2016-08-07T00:17:39.063Z,64.9
2016-08-07T00:17:42.769Z,64.9
2016-08-07T00:17:45.745Z,64.8
2016-08-07T00:17:49.452Z,64.8
2016-08-07T00:17:51.771Z,64.9
2016-08-07T00:17:55.479Z,64.9
2016-08-07T00:17:57.724Z,64.6
2016-08-07T00:18:01.430Z,64.8
2016-08-07T00:18:03.674Z,64.9
2016-08-07T00:18:05.926Z,64.9
2016-08-07T00:18:08.902Z,64.9
2016-08-07T00:18:11.876Z,64.8
2016-08-07T00:18:14.123Z,64.6
2016-08-07T00:18:16.369Z,64.8
2016-08-07T00:18:19.344Z,64.9
2016-08-07T00:18:22.319Z,64.9
2016-08-07T00:18:25.299Z,64.9
2016-08-07T00:18:29.005Z,64.9
2016-08-07T00:18:31.979Z,64.9
2016-08-07T00:18:34.957Z,64.8
2016-08-07T00:18:37.937Z,64.9
2016-08-07T00:18:41.649Z,64.9
2016-08-07T00:18:45.355Z,64.9
2016-08-07T00:18:48.354Z,64.9
2016-08-07T00:18:52.057Z,64.9
2016-08-07T00:18:55.031Z,64.9
2016-08-07T00:18:58.006Z,64.9
2016-08-07T00:19:01.715Z,64.9
2016-08-07T00:19:04.693Z,64.9
2016-08-07T00:19:07.667Z,65
2016-08-07T00:19:09.920Z,64.9
2016-08-07T00:19:13.625Z,64.9
2016-08-07T00:19:16.599Z,64.9
2016-08-07T00:19:19.577Z,64.9
2016-08-07T00:19:23.282Z,64.9
2016-08-07T00:19:26.257Z,64.9
2016-08-07T00:19:29.961Z,64.9
2016-08-07T00:19:32.937Z,64.9
2016-08-07T00:19:35.912Z,65
2016-08-07T00:19:38.887Z,64.9
2016-08-07T00:19:52.473Z,64.9
2016-08-07T00:19:54.723Z,64.9
2016-08-07T00:19:56.964Z,64.6
2016-08-07T00:19:59.938Z,64.6
2016-08-07T00:20:02.930Z,64.8
2016-08-07T00:20:05.905Z,64.9
2016-08-07T00:20:08.881Z,64.9
2016-08-07T00:20:12.588Z,64.9
2016-08-07T00:20:14.836Z,64.9
2016-08-07T00:20:17.085Z,64.9
2016-08-07T00:20:20.062Z,65
2016-08-07T00:20:23.040Z,64.9
2016-08-07T00:20:26.018Z,65
2016-08-07T00:20:28.995Z,64.9
2016-08-07T00:20:32.702Z,64.9
2016-08-07T00:20:36.403Z,64.9
2016-08-07T00:20:40.110Z,64.9
2016-08-07T00:20:43.823Z,64.9
2016-08-07T00:20:56.552Z,64.6
2016-08-07T00:21:00.255Z,64.8
2016-08-07T00:21:03.231Z,64.9
2016-08-07T00:21:05.479Z,64.9
2016-08-07T00:21:08.456Z,64.9
2016-08-07T00:21:11.433Z,64.9
2016-08-07T00:21:15.138Z,65
2016-08-07T00:21:18.113Z,64.9
2016-08-07T00:21:20.361Z,64.9
2016-08-07T00:21:24.066Z,64.9
2016-08-07T00:21:27.041Z,64.9
2016-08-07T00:21:30.016Z,64.9
2016-08-07T00:21:32.995Z,64.9
2016-08-07T00:21:34.587Z,64.9
2016-08-07T00:21:36.101Z,65
2016-08-07T00:21:39.079Z,64.9
2016-08-07T00:21:42.063Z,64.9
2016-08-07T00:21:45.041Z,65
2016-08-07T00:21:47.291Z,64.9
2016-08-07T00:21:49.539Z,64.8
2016-08-07T00:21:53.242Z,64.9
2016-08-07T00:21:56.947Z,64.8
2016-08-07T00:21:59.924Z,64.8
2016-08-07T00:22:03.628Z,64.8
2016-08-07T00:22:06.602Z,64.9
2016-08-07T00:22:08.847Z,64.8
2016-08-07T00:22:11.088Z,64.9
2016-08-07T00:22:14.803Z,64.8
2016-08-07T00:22:17.774Z,64.8
2016-08-07T00:22:21.476Z,64.9
2016-08-07T00:22:24.449Z,64.9
2016-08-07T00:22:28.157Z,64.9
2016-08-07T00:22:31.861Z,64.9
2016-08-07T00:22:34.836Z,64.7
2016-08-07T00:22:37.812Z,64.9
2016-08-07T00:22:41.519Z,64.8
2016-08-07T00:22:44.498Z,64.9
2016-08-07T00:22:47.468Z,64.9
2016-08-07T00:22:50.497Z,64.9
2016-08-07T00:22:52.750Z,64.9
2016-08-07T00:22:56.454Z,64.8
2016-08-07T00:22:59.430Z,64.8
2016-08-07T00:23:03.137Z,64.6
2016-08-07T00:23:06.113Z,64.9
2016-08-07T00:23:08.360Z,64.9
2016-08-07T00:23:10.609Z,64.7
2016-08-07T00:23:13.584Z,64.9
2016-08-07T00:23:16.562Z,64.8
2016-08-07T00:23:19.537Z,64.5
2016-08-07T00:23:23.239Z,64.8
2016-08-07T00:23:25.489Z,64.6
2016-08-07T00:23:28.468Z,64.9
2016-08-07T00:23:31.447Z,64.9
2016-08-07T00:23:34.424Z,64.6
2016-08-07T00:23:37.404Z,64.7
2016-08-07T00:23:40.378Z,64.7
2016-08-07T00:23:44.081Z,64.7
2016-08-07T00:23:47.056Z,64.6
2016-08-07T00:23:50.759Z,64.6
2016-08-07T00:23:53.740Z,64.6
2016-08-07T00:23:57.445Z,64.6
2016-08-07T00:24:00.418Z,64.6
2016-08-07T00:24:04.122Z,64.8
2016-08-07T00:24:07.098Z,64.7
2016-08-07T00:24:10.803Z,64.8
2016-08-07T00:24:14.519Z,64.6
2016-08-07T00:24:18.215Z,64.6
2016-08-07T00:24:20.464Z,64.6
2016-08-07T00:24:23.439Z,64.8
2016-08-07T00:24:27.146Z,64.8
2016-08-07T00:24:30.122Z,64.7
2016-08-07T00:24:33.828Z,64.6
2016-08-07T00:24:36.074Z,64.7
2016-08-07T00:24:38.329Z,64.8
2016-08-07T00:24:41.306Z,64.8
2016-08-07T00:24:43.552Z,64.8
2016-08-07T00:24:46.527Z,64.6
2016-08-07T00:24:50.240Z,64.6
2016-08-07T00:24:53.945Z,64.7
2016-08-07T00:24:57.652Z,64.7
2016-08-07T00:25:00.628Z,64.7
2016-08-07T00:25:02.876Z,64.6
2016-08-07T00:25:05.126Z,64.7
2016-08-07T00:25:08.102Z,64.8
2016-08-07T00:25:11.082Z,64.7
2016-08-07T00:25:14.056Z,64.7
2016-08-07T00:25:17.032Z,64.7
2016-08-07T00:25:19.284Z,64.6
2016-08-07T00:25:22.983Z,64.6
2016-08-07T00:25:25.235Z,64.6
2016-08-07T00:25:28.936Z,64.8
2016-08-07T00:25:32.642Z,64.6
2016-08-07T00:25:36.349Z,64.7
2016-08-07T00:25:39.321Z,64.7
2016-08-07T00:25:42.302Z,64.7
2016-08-07T00:25:46.007Z,64.7
2016-08-07T00:25:48.254Z,64.6
2016-08-07T00:25:50.503Z,64.7
2016-08-07T00:25:53.482Z,64.7
2016-08-07T00:25:57.197Z,64.6
2016-08-07T00:26:00.171Z,64.7
2016-08-07T00:26:01.693Z,64.7
2016-08-07T00:26:03.943Z,64.7
2016-08-07T00:26:06.928Z,64.7
2016-08-07T00:26:09.176Z,64.6
2016-08-07T00:26:12.152Z,64.7
2016-08-07T00:26:15.134Z,64.7
2016-08-07T00:26:18.838Z,64.7
2016-08-07T00:26:21.814Z,64.7
2016-08-07T00:26:24.796Z,64.7
2016-08-07T00:26:27.044Z,64.7
2016-08-07T00:26:29.291Z,64.8
2016-08-07T00:26:32.271Z,64.7
2016-08-07T00:26:35.254Z,64.6
2016-08-07T00:26:38.223Z,64.7
2016-08-07T00:26:41.929Z,64.7
2016-08-07T00:26:44.905Z,64.6
2016-08-07T00:26:47.158Z,64.7
2016-08-07T00:26:50.865Z,64.7
2016-08-07T00:26:53.838Z,64.6
2016-08-07T00:26:56.088Z,64.8
2016-08-07T00:26:59.792Z,64.8
2016-08-07T00:27:03.499Z,64.7
2016-08-07T00:27:07.205Z,64.6
2016-08-07T00:27:10.912Z,64.7
2016-08-07T00:27:13.895Z,64.6
2016-08-07T00:27:16.871Z,64.6
2016-08-07T00:27:20.575Z,64.6
2016-08-07T00:27:23.548Z,64.5
2016-08-07T00:27:26.527Z,64.6
2016-08-07T00:27:29.505Z,64.6
2016-08-07T00:27:33.209Z,64.6
2016-08-07T00:27:36.212Z,64.7
2016-08-07T00:27:39.188Z,64.8
2016-08-07T00:27:42.170Z,64.6
2016-08-07T00:27:45.148Z,64.6
2016-08-07T00:27:48.853Z,64.6
2016-08-07T00:27:52.557Z,64.6
2016-08-07T00:27:55.609Z,64.6
2016-08-07T00:27:57.127Z,64.6
2016-08-07T00:28:00.104Z,64.6
2016-08-07T00:28:02.352Z,64.6
2016-08-07T00:28:05.327Z,64.6
2016-08-07T00:28:09.033Z,64.7
2016-08-07T00:28:09.898Z,64.6
2016-08-07T00:28:12.871Z,64.6
2016-08-07T00:28:15.850Z,64.6
2016-08-07T00:28:19.555Z,64.6
2016-08-07T00:28:22.528Z,64.8
2016-08-07T00:28:25.504Z,64.7
2016-08-07T00:28:27.757Z,64.6
2016-08-07T00:28:31.462Z,64.7
2016-08-07T00:28:34.438Z,64.6
2016-08-07T00:28:37.421Z,64.6
2016-08-07T00:28:40.397Z,64.7
2016-08-07T00:28:43.371Z,64.6
2016-08-07T00:28:47.076Z,64.6
2016-08-07T00:28:50.782Z,64.6
2016-08-07T00:28:52.296Z,64.6
2016-08-07T00:28:55.272Z,64.6
2016-08-07T00:28:58.322Z,64.6
2016-08-07T00:29:01.298Z,64.6
2016-08-07T00:29:04.277Z,64.6
2016-08-07T00:29:07.982Z,64.7
2016-08-07T00:29:10.233Z,64.6
2016-08-07T00:29:13.936Z,64.6
2016-08-07T00:29:17.658Z,64.6
2016-08-07T00:29:20.642Z,64.6
2016-08-07T00:29:23.621Z,64.7
2016-08-07T00:29:26.597Z,64.6
2016-08-07T00:29:30.303Z,64.6
2016-08-07T00:29:34.008Z,64.7
2016-08-07T00:29:36.982Z,64.6
2016-08-07T00:29:40.687Z,64.6
2016-08-07T00:29:42.934Z,64.6
2016-08-07T00:29:45.912Z,64.6
2016-08-07T00:29:48.889Z,64.6
2016-08-07T00:29:50.403Z,64.6
2016-08-07T00:29:53.382Z,64.6
2016-08-07T00:29:56.356Z,64.6
2016-08-07T00:30:00.062Z,64.5
2016-08-07T00:30:03.041Z,64.7
2016-08-07T00:30:05.287Z,64.6
2016-08-07T00:30:07.560Z,64.6
2016-08-07T00:30:10.528Z,64.6
2016-08-07T00:30:12.774Z,64.8
2016-08-07T00:30:14.291Z,64.6
2016-08-07T00:30:16.541Z,64.7
2016-08-07T00:30:19.514Z,64.6
2016-08-07T00:30:23.221Z,64.6
2016-08-07T00:30:26.925Z,64.6
2016-08-07T00:30:29.176Z,64.7
2016-08-07T00:30:31.421Z,64.6
2016-08-07T00:30:34.393Z,64.6
2016-08-07T00:30:38.097Z,64.6
2016-08-07T00:30:41.075Z,64.7
2016-08-07T00:30:44.780Z,64.6
2016-08-07T00:30:47.032Z,64.6
2016-08-07T00:30:50.739Z,64.8
2016-08-07T00:30:53.715Z,64.6
2016-08-07T00:30:56.691Z,64.8
2016-08-07T00:31:00.392Z,64.6
2016-08-07T00:31:03.369Z,64.6
2016-08-07T00:31:07.070Z,64.6
2016-08-07T00:31:10.048Z,64.6
2016-08-07T00:31:13.022Z,64.7
2016-08-07T00:31:16.004Z,64.6
2016-08-07T00:31:18.979Z,64.6
2016-08-07T00:31:21.955Z,64.6
2016-08-07T00:31:24.932Z,64.7
2016-08-07T00:31:27.906Z,64.7
2016-08-07T00:31:30.879Z,64.7
2016-08-07T00:31:33.130Z,64.7
2016-08-07T00:31:36.837Z,64.6
2016-08-07T00:31:40.542Z,64.6
2016-08-07T00:31:44.253Z,64.6
2016-08-07T00:31:47.955Z,64.7
2016-08-07T00:31:50.204Z,64.6
2016-08-07T00:31:53.178Z,64.6
2016-08-07T00:31:56.153Z,64.6
2016-08-07T00:31:59.859Z,64.6
2016-08-07T00:32:02.830Z,64.8
2016-08-07T00:32:05.082Z,64.6
2016-08-07T00:32:07.327Z,64.7
2016-08-07T00:32:11.032Z,64.7
2016-08-07T00:32:14.746Z,64.6
2016-08-07T00:32:18.456Z,64.6
2016-08-07T00:32:22.161Z,64.7
2016-08-07T00:32:25.866Z,64.6
2016-08-07T00:32:29.576Z,64.8
2016-08-07T00:32:33.274Z,64.6
2016-08-07T00:32:36.980Z,64.6
2016-08-07T00:32:39.958Z,64.6
2016-08-07T00:32:43.663Z,64.7
2016-08-07T00:32:46.641Z,64.6
2016-08-07T00:32:49.616Z,64.7
2016-08-07T00:32:53.320Z,64.6
2016-08-07T00:32:57.025Z,64.7
2016-08-07T00:33:00.003Z,64.7
2016-08-07T00:33:03.703Z,64.6
2016-08-07T00:33:06.679Z,64.6
2016-08-07T00:33:10.384Z,64.7
2016-08-07T00:33:11.899Z,64.6
2016-08-07T00:33:15.604Z,64.6
2016-08-07T00:33:18.579Z,64.7
2016-08-07T00:33:22.284Z,64.6
2016-08-07T00:33:25.990Z,64.6
2016-08-07T00:33:28.976Z,64.6
2016-08-07T00:33:31.223Z,64.7
2016-08-07T00:33:34.925Z,64.6
2016-08-07T00:33:36.445Z,64.6
2016-08-07T00:33:40.152Z,64.6
2016-08-07T00:33:41.668Z,64.6
2016-08-07T00:33:45.380Z,64.7
2016-08-07T00:33:49.084Z,64.6
2016-08-07T00:33:52.063Z,64.6
2016-08-07T00:33:55.039Z,64.6
2016-08-07T00:33:57.307Z,64.8
2016-08-07T00:34:01.002Z,64.6
2016-08-07T00:34:04.708Z,64.6
2016-08-07T00:34:07.682Z,64.6
2016-08-07T00:34:10.657Z,64.8
2016-08-07T00:34:14.363Z,64.7
2016-08-07T00:34:18.061Z,64.8
2016-08-07T00:34:20.307Z,64.6
2016-08-07T00:34:23.287Z,64.7
2016-08-07T00:34:26.989Z,64.7
2016-08-07T00:34:29.972Z,64.6
2016-08-07T00:34:32.944Z,64.7
2016-08-07T00:34:35.920Z,64.5
2016-08-07T00:34:38.909Z,64.8
2016-08-07T00:34:42.608Z,64.7
2016-08-07T00:34:46.313Z,64.6
2016-08-07T00:34:48.559Z,64.7
2016-08-07T00:34:50.806Z,64.8
2016-08-07T00:34:53.784Z,64.6
2016-08-07T00:34:57.488Z,64.7
2016-08-07T00:35:01.193Z,64.6
2016-08-07T00:35:04.895Z,64.7
2016-08-07T00:35:07.872Z,64.8
2016-08-07T00:35:11.582Z,64.7
2016-08-07T00:35:15.287Z,64.6
2016-08-07T00:35:18.994Z,64.8
2016-08-07T00:35:22.697Z,64.7
2016-08-07T00:35:24.947Z,64.6
2016-08-07T00:35:28.657Z,64.7
2016-08-07T00:35:32.358Z,64.7
2016-08-07T00:35:35.337Z,64.6
2016-08-07T00:35:39.044Z,64.7
2016-08-07T00:35:41.294Z,64.6
2016-08-07T00:35:44.274Z,64.6
2016-08-07T00:35:47.250Z,64.6
2016-08-07T00:35:50.228Z,64.8
2016-08-07T00:35:53.933Z,64.6
2016-08-07T00:35:57.635Z,64.9
2016-08-07T00:35:59.882Z,64.7
2016-08-07T00:36:02.859Z,64.6
2016-08-07T00:36:05.105Z,64.7
2016-08-07T00:36:08.081Z,64.7
2016-08-07T00:36:11.063Z,64.7
2016-08-07T00:36:14.046Z,64.6
2016-08-07T00:36:17.020Z,64.6
2016-08-07T00:36:20.730Z,64.6
2016-08-07T00:36:24.434Z,64.6
2016-08-07T00:36:28.141Z,64.8
2016-08-07T00:36:31.126Z,64.6
2016-08-07T00:36:34.831Z,64.7
2016-08-07T00:36:38.534Z,64.7
2016-08-07T00:36:41.513Z,64.5
2016-08-07T00:36:45.218Z,64.8
2016-08-07T00:36:48.195Z,64.6
2016-08-07T00:36:51.169Z,64.6
2016-08-07T00:36:53.415Z,64.8
2016-08-07T00:36:56.391Z,64.6
2016-08-07T00:36:57.916Z,64.6
2016-08-07T00:37:00.893Z,64.6
2016-08-07T00:37:03.870Z,64.7
2016-08-07T00:37:04.662Z,64.7
2016-08-07T00:37:07.637Z,64.7
2016-08-07T00:37:09.886Z,64.6
2016-08-07T00:37:12.861Z,64.8
2016-08-07T00:37:14.382Z,64.6
2016-08-07T00:37:17.359Z,64.6
2016-08-07T00:37:21.072Z,64.6
2016-08-07T00:37:24.052Z,64.7
2016-08-07T00:37:27.027Z,64.6
2016-08-07T00:37:30.734Z,64.7
2016-08-07T00:37:34.441Z,64.5
2016-08-07T00:37:38.148Z,64.7
2016-08-07T00:37:41.856Z,64.7
2016-08-07T00:37:43.376Z,64.7
2016-08-07T00:37:47.079Z,64.7
2016-08-07T00:37:49.403Z,64.5
2016-08-07T00:37:53.113Z,64.7
2016-08-07T00:37:56.085Z,64.6
2016-08-07T00:38:08.101Z,64.7
2016-08-07T00:38:11.806Z,64.6
2016-08-07T00:38:14.788Z,64.6
2016-08-07T00:38:17.762Z,64.8
2016-08-07T00:38:21.466Z,64.8
2016-08-07T00:38:25.171Z,64.6
2016-08-07T00:38:27.420Z,64.7
2016-08-07T00:38:30.445Z,64.7
2016-08-07T00:38:32.692Z,64.7
2016-08-07T00:38:35.668Z,64.7
2016-08-07T00:38:38.646Z,64.7
2016-08-07T00:38:41.626Z,64.5
2016-08-07T00:38:44.604Z,64.7
2016-08-07T00:38:48.306Z,64.6
2016-08-07T00:38:51.280Z,64.7
2016-08-07T00:38:54.259Z,64.6
2016-08-07T00:38:57.238Z,64.6
2016-08-07T00:39:00.212Z,64.6
2016-08-07T00:39:02.458Z,64.6
2016-08-07T00:39:05.432Z,64.6
2016-08-07T00:39:06.948Z,64.7
2016-08-07T00:39:10.659Z,64.6
2016-08-07T00:39:14.366Z,64.8
2016-08-07T00:39:18.067Z,64.7
2016-08-07T00:39:21.042Z,64.6
2016-08-07T00:39:24.746Z,64.7
2016-08-07T00:39:27.719Z,64.7
2016-08-07T00:39:29.969Z,64.6
2016-08-07T00:39:33.673Z,64.6
2016-08-07T00:39:37.380Z,64.6
2016-08-07T00:39:40.355Z,64.6
2016-08-07T00:39:44.058Z,64.6
2016-08-07T00:39:46.303Z,64.6
2016-08-07T00:39:48.553Z,64.6
2016-08-07T00:39:51.526Z,64.7
2016-08-07T00:39:54.505Z,64.6
2016-08-07T00:39:57.476Z,64.6
2016-08-07T00:40:00.451Z,64.7
2016-08-07T00:40:02.702Z,64.6
2016-08-07T00:40:04.945Z,64.7
2016-08-07T00:40:08.649Z,64.8
2016-08-07T00:40:10.895Z,64.8
2016-08-07T00:40:13.869Z,64.8
2016-08-07T00:40:16.843Z,64.8
2016-08-07T00:40:19.089Z,64.8
2016-08-07T00:40:22.065Z,64.7
2016-08-07T00:40:25.773Z,64.7
2016-08-07T00:40:28.021Z,64.6
2016-08-07T00:40:30.438Z,64.6
2016-08-07T00:40:32.686Z,64.7
2016-08-07T00:40:34.202Z,64.6
2016-08-07T00:40:37.178Z,64.6
2016-08-07T00:40:38.697Z,64.7
2016-08-07T00:40:41.670Z,64.7
2016-08-07T00:40:44.651Z,64.7